sensor_id;sensor_type;location;lat;lon;timestamp;temperature;humidity
68358;DHT22;55276;53.260;50.222;2022-12-10T00:01:47;-3266.90;63.40
68358;DHT22;55276;53.260;50.222;2022-12-10T00:04:14;-3266.90;63.40
68358;DHT22;55276;53.260;50.222;2022-12-10T00:06:41;-3266.90;63.40
68358;DHT22;55276;53.260;50.222;2022-12-10T00:09:10;-3267.00;63.30
68358;DHT22;55276;53.260;50.222;2022-12-10T00:11:38;-3267.10;63.10
68358;DHT22;55276;53.260;50.222;2022-12-10T00:14:04;-3267.00;63.20
68358;DHT22;55276;53.260;50.222;2022-12-10T00:16:33;-3267.10;62.90
68358;DHT22;55276;53.260;50.222;2022-12-10T00:19:00;-3267.10;62.80
68358;DHT22;55276;53.260;50.222;2022-12-10T00:21:29;-3267.00;62.80
68358;DHT22;55276;53.260;50.222;2022-12-10T00:23:56;-3266.90;62.80
68358;DHT22;55276;53.260;50.222;2022-12-10T00:26:24;-3266.90;63.00
68358;DHT22;55276;53.260;50.222;2022-12-10T00:28:51;-3267.00;63.00
68358;DHT22;55276;53.260;50.222;2022-12-10T00:31:25;-3266.90;62.90
68358;DHT22;55276;53.260;50.222;2022-12-10T00:34:01;-3266.90;62.70
68358;DHT22;55276;53.260;50.222;2022-12-10T00:36:45;-3266.90;62.90
68358;DHT22;55276;53.260;50.222;2022-12-10T00:39:14;-3266.90;63.00
68358;DHT22;55276;53.260;50.222;2022-12-10T00:41:40;-3266.90;63.00
68358;DHT22;55276;53.260;50.222;2022-12-10T00:44:07;-3266.90;63.00
68358;DHT22;55276;53.260;50.222;2022-12-10T00:46:33;-3266.90;63.00
68358;DHT22;55276;53.260;50.222;2022-12-10T00:48:59;-3266.90;63.10
68358;DHT22;55276;53.260;50.222;2022-12-10T00:51:26;-3266.90;63.00
68358;DHT22;55276;53.260;50.222;2022-12-10T00:53:55;-3266.90;63.10
68358;DHT22;55276;53.260;50.222;2022-12-10T00:56:23;-3266.90;63.10
68358;DHT22;55276;53.260;50.222;2022-12-10T00:58:50;-3267.00;63.00
68358;DHT22;55276;53.260;50.222;2022-12-10T01:01:27;-3267.00;62.70
68358;DHT22;55276;53.260;50.222;2022-12-10T01:03:56;-3266.90;62.80
68358;DHT22;55276;53.260;50.222;2022-12-10T01:06:28;-3266.90;62.80
68358;DHT22;55276;53.260;50.222;2022-12-10T01:08:57;-3266.90;63.00
68358;DHT22;55276;53.260;50.222;2022-12-10T01:11:26;-3266.90;63.00
68358;DHT22;55276;53.260;50.222;2022-12-10T01:13:54;-3267.00;63.00
68358;DHT22;55276;53.260;50.222;2022-12-10T01:16:21;-3267.10;63.00
68358;DHT22;55276;53.260;50.222;2022-12-10T01:18:47;-3267.10;62.60
68358;DHT22;55276;53.260;50.222;2022-12-10T01:21:19;-3267.10;62.30
68358;DHT22;55276;53.260;50.222;2022-12-10T01:23:47;-3267.20;62.00
68358;DHT22;55276;53.260;50.222;2022-12-10T01:26:16;-3267.20;61.90
68358;DHT22;55276;53.260;50.222;2022-12-10T01:28:43;-3267.20;61.80
68358;DHT22;55276;53.260;50.222;2022-12-10T01:31:17;-3267.20;61.80
68358;DHT22;55276;53.260;50.222;2022-12-10T01:33:43;-3267.20;61.60
68358;DHT22;55276;53.260;50.222;2022-12-10T01:36:22;-3267.20;61.70
68358;DHT22;55276;53.260;50.222;2022-12-10T01:38:50;-3267.30;61.60
68358;DHT22;55276;53.260;50.222;2022-12-10T01:41:25;-3267.20;61.40
68358;DHT22;55276;53.260;50.222;2022-12-10T01:46:21;-3267.20;61.60
68358;DHT22;55276;53.260;50.222;2022-12-10T01:48:48;-3267.20;61.80
68358;DHT22;55276;53.260;50.222;2022-12-10T01:51:15;-3267.20;61.90
68358;DHT22;55276;53.260;50.222;2022-12-10T01:53:42;-3267.20;61.90
68358;DHT22;55276;53.260;50.222;2022-12-10T01:56:10;-3267.30;61.60
68358;DHT22;55276;53.260;50.222;2022-12-10T01:58:37;-3267.30;61.70
68358;DHT22;55276;53.260;50.222;2022-12-10T02:01:05;-3267.30;61.90
68358;DHT22;55276;53.260;50.222;2022-12-10T02:06:39;-3267.40;61.70
68358;DHT22;55276;53.260;50.222;2022-12-10T02:12:24;-3267.50;61.60
68358;DHT22;55276;53.260;50.222;2022-12-10T02:15:06;-3267.50;61.30
68358;DHT22;55276;53.260;50.222;2022-12-10T02:17:42;-3267.50;61.30
68358;DHT22;55276;53.260;50.222;2022-12-10T02:20:30;-3267.50;61.20
68358;DHT22;55276;53.260;50.222;2022-12-10T02:23:05;-3267.50;61.20
68358;DHT22;55276;53.260;50.222;2022-12-10T02:25:43;-3267.40;61.30
68358;DHT22;55276;53.260;50.222;2022-12-10T02:28:39;-3267.40;61.20
68358;DHT22;55276;53.260;50.222;2022-12-10T02:31:09;-3267.40;61.30
68358;DHT22;55276;53.260;50.222;2022-12-10T02:33:38;-3267.40;61.20
68358;DHT22;55276;53.260;50.222;2022-12-10T02:36:07;-3267.40;61.20
68358;DHT22;55276;53.260;50.222;2022-12-10T02:38:36;-3267.40;61.40
68358;DHT22;55276;53.260;50.222;2022-12-10T02:41:07;-3267.40;61.50
68358;DHT22;55276;53.260;50.222;2022-12-10T02:43:34;-3267.40;61.60
68358;DHT22;55276;53.260;50.222;2022-12-10T02:46:03;-3267.30;61.70
68358;DHT22;55276;53.260;50.222;2022-12-10T02:48:31;-3267.40;61.90
68358;DHT22;55276;53.260;50.222;2022-12-10T02:50:58;-3267.40;61.70
68358;DHT22;55276;53.260;50.222;2022-12-10T02:53:24;-3267.40;61.70
68358;DHT22;55276;53.260;50.222;2022-12-10T02:56:13;-3267.50;61.70
68358;DHT22;55276;53.260;50.222;2022-12-10T03:04:37;-3267.40;61.60
68358;DHT22;55276;53.260;50.222;2022-12-10T03:07:10;-3267.40;61.50
68358;DHT22;55276;53.260;50.222;2022-12-10T03:09:51;-3267.40;61.80
68358;DHT22;55276;53.260;50.222;2022-12-10T03:12:29;-3267.30;61.70
68358;DHT22;55276;53.260;50.222;2022-12-10T03:15:04;-3267.30;62.00
68358;DHT22;55276;53.260;50.222;2022-12-10T03:17:31;-3267.30;62.10
68358;DHT22;55276;53.260;50.222;2022-12-10T03:19:59;-3267.40;62.10
68358;DHT22;55276;53.260;50.222;2022-12-10T03:22:26;-3267.30;61.90
68358;DHT22;55276;53.260;50.222;2022-12-10T03:24:54;-3267.40;62.10
68358;DHT22;55276;53.260;50.222;2022-12-10T03:27:23;-3267.40;62.00
68358;DHT22;55276;53.260;50.222;2022-12-10T03:29:51;-3267.40;62.30
68358;DHT22;55276;53.260;50.222;2022-12-10T03:32:21;-3267.40;62.40
68358;DHT22;55276;53.260;50.222;2022-12-10T03:34:50;-3267.50;62.40
68358;DHT22;55276;53.260;50.222;2022-12-10T03:37:18;-3267.50;62.30
68358;DHT22;55276;53.260;50.222;2022-12-10T03:39:45;-3267.40;62.30
68358;DHT22;55276;53.260;50.222;2022-12-10T03:42:12;-3267.40;62.60
68358;DHT22;55276;53.260;50.222;2022-12-10T03:44:39;-3267.40;62.60
68358;DHT22;55276;53.260;50.222;2022-12-10T03:47:08;-3267.40;62.60
68358;DHT22;55276;53.260;50.222;2022-12-10T03:49:36;-3267.40;62.60
68358;DHT22;55276;53.260;50.222;2022-12-10T03:52:02;-3267.30;62.40
68358;DHT22;55276;53.260;50.222;2022-12-10T03:54:28;-3267.20;62.50
68358;DHT22;55276;53.260;50.222;2022-12-10T03:56:54;-3267.20;62.80
68358;DHT22;55276;53.260;50.222;2022-12-10T03:59:21;-3267.20;62.80
68358;DHT22;55276;53.260;50.222;2022-12-10T04:01:47;-3267.20;62.80
68358;DHT22;55276;53.260;50.222;2022-12-10T04:04:13;-3267.20;62.80
68358;DHT22;55276;53.260;50.222;2022-12-10T04:06:41;-3267.30;62.90
68358;DHT22;55276;53.260;50.222;2022-12-10T04:09:12;-3267.30;62.90
68358;DHT22;55276;53.260;50.222;2022-12-10T04:11:38;-3267.30;62.60
68358;DHT22;55276;53.260;50.222;2022-12-10T04:14:04;-3267.30;62.60
68358;DHT22;55276;53.260;50.222;2022-12-10T04:16:49;-3267.40;62.60
68358;DHT22;55276;53.260;50.222;2022-12-10T04:19:18;-3267.40;62.50
68358;DHT22;55276;53.260;50.222;2022-12-10T04:21:45;-3267.40;62.40
68358;DHT22;55276;53.260;50.222;2022-12-10T04:24:32;-3267.30;62.40
68358;DHT22;55276;53.260;50.222;2022-12-10T04:27:23;-3267.30;62.40
68358;DHT22;55276;53.260;50.222;2022-12-10T04:29:50;-3267.20;62.50
68358;DHT22;55276;53.260;50.222;2022-12-10T04:32:17;-3267.20;62.60
68358;DHT22;55276;53.260;50.222;2022-12-10T04:34:44;-3267.20;62.70
68358;DHT22;55276;53.260;50.222;2022-12-10T04:37:12;-3267.20;62.60
68358;DHT22;55276;53.260;50.222;2022-12-10T04:39:38;-3267.20;62.90
68358;DHT22;55276;53.260;50.222;2022-12-10T04:42:05;-3267.10;62.90
68358;DHT22;55276;53.260;50.222;2022-12-10T04:44:31;-3267.10;63.10
68358;DHT22;55276;53.260;50.222;2022-12-10T04:46:57;-3267.10;63.10
68358;DHT22;55276;53.260;50.222;2022-12-10T04:49:24;-3267.00;63.30
68358;DHT22;55276;53.260;50.222;2022-12-10T04:51:50;-3267.00;63.40
68358;DHT22;55276;53.260;50.222;2022-12-10T04:54:16;-3267.00;63.50
68358;DHT22;55276;53.260;50.222;2022-12-10T04:56:42;-3266.90;63.60
68358;DHT22;55276;53.260;50.222;2022-12-10T04:59:09;-3266.90;63.60
68358;DHT22;55276;53.260;50.222;2022-12-10T05:01:37;-3266.90;63.70
68358;DHT22;55276;53.260;50.222;2022-12-10T05:04:06;-3266.90;63.70
68358;DHT22;55276;53.260;50.222;2022-12-10T05:06:33;-3266.90;63.80
68358;DHT22;55276;53.260;50.222;2022-12-10T05:09:00;-3267.00;63.70
68358;DHT22;55276;53.260;50.222;2022-12-10T05:11:28;-3267.00;63.70
68358;DHT22;55276;53.260;50.222;2022-12-10T05:13:56;-3267.00;63.60
68358;DHT22;55276;53.260;50.222;2022-12-10T05:16:23;-3267.10;63.60
68358;DHT22;55276;53.260;50.222;2022-12-10T05:18:51;-3267.10;63.50
68358;DHT22;55276;53.260;50.222;2022-12-10T05:21:19;-3267.20;63.40
68358;DHT22;55276;53.260;50.222;2022-12-10T05:23:46;-3267.20;63.30
68358;DHT22;55276;53.260;50.222;2022-12-10T05:26:18;-3267.30;63.10
68358;DHT22;55276;53.260;50.222;2022-12-10T05:28:51;-3267.20;62.70
68358;DHT22;55276;53.260;50.222;2022-12-10T05:31:24;-3267.20;62.80
68358;DHT22;55276;53.260;50.222;2022-12-10T05:33:52;-3267.20;62.90
68358;DHT22;55276;53.260;50.222;2022-12-10T05:36:23;-3267.20;62.90
68358;DHT22;55276;53.260;50.222;2022-12-10T05:38:50;-3267.20;63.00
68358;DHT22;55276;53.260;50.222;2022-12-10T05:41:27;-3267.20;63.10
68358;DHT22;55276;53.260;50.222;2022-12-10T05:43:58;-3267.20;63.20
68358;DHT22;55276;53.260;50.222;2022-12-10T05:46:29;-3267.20;63.20
68358;DHT22;55276;53.260;50.222;2022-12-10T05:49:00;-3267.20;63.20
68358;DHT22;55276;53.260;50.222;2022-12-10T05:51:31;-3267.20;63.30
68358;DHT22;55276;53.260;50.222;2022-12-10T05:53:59;-3267.20;63.30
68358;DHT22;55276;53.260;50.222;2022-12-10T05:56:25;-3267.30;63.20
68358;DHT22;55276;53.260;50.222;2022-12-10T05:58:59;-3267.40;63.20
68358;DHT22;55276;53.260;50.222;2022-12-10T06:01:28;-3267.50;62.90
68358;DHT22;55276;53.260;50.222;2022-12-10T06:03:57;-3267.60;62.80
68358;DHT22;55276;53.260;50.222;2022-12-10T06:06:29;-3267.70;62.60
68358;DHT22;55276;53.260;50.222;2022-12-10T06:08:58;-3267.80;62.50
68358;DHT22;55276;53.260;50.222;2022-12-10T06:11:26;-3267.90;61.90
68358;DHT22;55276;53.260;50.222;2022-12-10T06:13:57;-3267.90;61.70
68358;DHT22;55276;53.260;50.222;2022-12-10T06:16:24;-3267.90;61.50
68358;DHT22;55276;53.260;50.222;2022-12-10T06:18:51;-3268.10;61.10
68358;DHT22;55276;53.260;50.222;2022-12-10T06:21:18;-3268.10;60.70
68358;DHT22;55276;53.260;50.222;2022-12-10T06:23:47;-3268.10;60.80
68358;DHT22;55276;53.260;50.222;2022-12-10T06:26:16;-3268.20;60.50
68358;DHT22;55276;53.260;50.222;2022-12-10T06:28:44;-3268.10;60.60
68358;DHT22;55276;53.260;50.222;2022-12-10T06:31:11;-3268.20;60.10
68358;DHT22;55276;53.260;50.222;2022-12-10T06:33:37;-3268.20;60.00
68358;DHT22;55276;53.260;50.222;2022-12-10T06:36:09;-3268.20;60.20
68358;DHT22;55276;53.260;50.222;2022-12-10T06:38:37;-3268.20;59.90
68358;DHT22;55276;53.260;50.222;2022-12-10T06:41:08;-3268.30;59.90
68358;DHT22;55276;53.260;50.222;2022-12-10T06:43:36;-3268.40;59.90
68358;DHT22;55276;53.260;50.222;2022-12-10T06:46:07;-3268.40;59.80
68358;DHT22;55276;53.260;50.222;2022-12-10T06:48:34;-3268.40;59.60
68358;DHT22;55276;53.260;50.222;2022-12-10T06:53:53;-3268.40;59.40
68358;DHT22;55276;53.260;50.222;2022-12-10T06:56:19;-3268.40;59.10
68358;DHT22;55276;53.260;50.222;2022-12-10T06:58:46;-3268.40;59.10
68358;DHT22;55276;53.260;50.222;2022-12-10T07:01:24;-3268.50;59.10
68358;DHT22;55276;53.260;50.222;2022-12-10T07:03:55;-3268.50;59.00
68358;DHT22;55276;53.260;50.222;2022-12-10T07:06:30;-3268.60;59.00
68358;DHT22;55276;53.260;50.222;2022-12-10T07:09:23;-3268.70;58.40
68358;DHT22;55276;53.260;50.222;2022-12-10T07:15:55;-3268.70;57.30
68358;DHT22;55276;53.260;50.222;2022-12-10T07:18:22;-3268.90;56.70
68358;DHT22;55276;53.260;50.222;2022-12-10T07:20:51;-3268.90;56.50
68358;DHT22;55276;53.260;50.222;2022-12-10T07:23:18;-3269.00;56.40
68358;DHT22;55276;53.260;50.222;2022-12-10T07:25:45;-3269.30;56.40
68358;DHT22;55276;53.260;50.222;2022-12-10T07:28:14;-3269.40;56.10
68358;DHT22;55276;53.260;50.222;2022-12-10T07:30:40;-3269.50;55.90
68358;DHT22;55276;53.260;50.222;2022-12-10T07:33:06;-3269.50;55.20
68358;DHT22;55276;53.260;50.222;2022-12-10T07:35:44;-3269.70;54.50
68358;DHT22;55276;53.260;50.222;2022-12-10T07:38:12;-3269.60;54.20
68358;DHT22;55276;53.260;50.222;2022-12-10T07:40:38;-3269.60;54.70
68358;DHT22;55276;53.260;50.222;2022-12-10T07:43:16;-3269.60;55.10
68358;DHT22;55276;53.260;50.222;2022-12-10T07:45:48;-3269.60;55.00
68358;DHT22;55276;53.260;50.222;2022-12-10T07:48:15;-3269.50;54.80
68358;DHT22;55276;53.260;50.222;2022-12-10T07:50:41;-3269.40;55.10
68358;DHT22;55276;53.260;50.222;2022-12-10T07:53:07;-3269.50;55.20
68358;DHT22;55276;53.260;50.222;2022-12-10T07:55:33;-3269.40;55.20
68358;DHT22;55276;53.260;50.222;2022-12-10T07:58:09;-3269.60;55.10
68358;DHT22;55276;53.260;50.222;2022-12-10T08:00:48;-3269.70;55.10
68358;DHT22;55276;53.260;50.222;2022-12-10T08:03:30;-3269.80;54.80
68358;DHT22;55276;53.260;50.222;2022-12-10T08:06:10;-3269.80;54.30
68358;DHT22;55276;53.260;50.222;2022-12-10T08:08:46;-3269.90;54.20
68358;DHT22;55276;53.260;50.222;2022-12-10T08:11:16;-3269.90;54.00
68358;DHT22;55276;53.260;50.222;2022-12-10T08:14:03;-3270.10;53.70
68358;DHT22;55276;53.260;50.222;2022-12-10T08:16:46;-3270.10;53.30
68358;DHT22;55276;53.260;50.222;2022-12-10T08:19:13;-3270.20;53.10
68358;DHT22;55276;53.260;50.222;2022-12-10T08:21:42;-3270.30;52.70
68358;DHT22;55276;53.260;50.222;2022-12-10T08:24:08;-3270.20;52.10
68358;DHT22;55276;53.260;50.222;2022-12-10T08:26:38;-3270.30;52.30
68358;DHT22;55276;53.260;50.222;2022-12-10T08:29:04;-3270.40;52.00
68358;DHT22;55276;53.260;50.222;2022-12-10T08:31:34;-3270.40;52.00
68358;DHT22;55276;53.260;50.222;2022-12-10T08:34:12;-3270.40;52.40
68358;DHT22;55276;53.260;50.222;2022-12-10T08:36:39;-3270.40;52.40
68358;DHT22;55276;53.260;50.222;2022-12-10T08:39:07;-3270.40;52.30
68358;DHT22;55276;53.260;50.222;2022-12-10T08:41:33;-3270.30;52.40
68358;DHT22;55276;53.260;50.222;2022-12-10T08:43:59;-3270.30;52.50
68358;DHT22;55276;53.260;50.222;2022-12-10T08:46:26;-3270.40;52.40
68358;DHT22;55276;53.260;50.222;2022-12-10T08:48:52;-3270.40;52.50
68358;DHT22;55276;53.260;50.222;2022-12-10T08:51:19;-3270.50;52.60
68358;DHT22;55276;53.260;50.222;2022-12-10T08:53:45;-3270.60;51.80
68358;DHT22;55276;53.260;50.222;2022-12-10T08:56:12;-3270.60;52.10
68358;DHT22;55276;53.260;50.222;2022-12-10T08:58:41;-3270.70;51.20
68358;DHT22;55276;53.260;50.222;2022-12-10T09:01:09;-3270.60;50.10
68358;DHT22;55276;53.260;50.222;2022-12-10T09:03:35;-3270.60;49.60
68358;DHT22;55276;53.260;50.222;2022-12-10T09:06:04;-3270.60;49.40
68358;DHT22;55276;53.260;50.222;2022-12-10T09:08:31;-3270.50;49.80
68358;DHT22;55276;53.260;50.222;2022-12-10T09:11:05;-3270.60;50.70
68358;DHT22;55276;53.260;50.222;2022-12-10T09:13:31;-3270.80;50.40
68358;DHT22;55276;53.260;50.222;2022-12-10T09:15:57;-3270.90;49.90
68358;DHT22;55276;53.260;50.222;2022-12-10T09:18:23;-3270.80;50.20
68358;DHT22;55276;53.260;50.222;2022-12-10T09:20:49;-3270.80;50.60
68358;DHT22;55276;53.260;50.222;2022-12-10T09:23:15;-3270.70;50.50
68358;DHT22;55276;53.260;50.222;2022-12-10T09:25:42;-3270.70;50.50
68358;DHT22;55276;53.260;50.222;2022-12-10T09:28:08;-3270.70;49.90
68358;DHT22;55276;53.260;50.222;2022-12-10T09:30:34;-3270.70;50.60
68358;DHT22;55276;53.260;50.222;2022-12-10T09:33:00;-3270.80;50.70
68358;DHT22;55276;53.260;50.222;2022-12-10T09:35:27;-3270.90;50.70
68358;DHT22;55276;53.260;50.222;2022-12-10T09:37:55;-3271.10;50.50
68358;DHT22;55276;53.260;50.222;2022-12-10T09:40:34;-3271.10;50.10
68358;DHT22;55276;53.260;50.222;2022-12-10T09:43:39;-3271.10;50.30
68358;DHT22;55276;53.260;50.222;2022-12-10T09:49:13;-3271.00;50.60
68358;DHT22;55276;53.260;50.222;2022-12-10T09:51:37;-3271.00;50.70
68358;DHT22;55276;53.260;50.222;2022-12-10T09:54:26;-3271.00;51.00
68358;DHT22;55276;53.260;50.222;2022-12-10T09:56:57;-3270.90;50.90
68358;DHT22;55276;53.260;50.222;2022-12-10T09:59:39;-3270.90;51.30
68358;DHT22;55276;53.260;50.222;2022-12-10T10:04:41;-3270.70;51.40
68358;DHT22;55276;53.260;50.222;2022-12-10T10:07:17;-3270.90;51.60
68358;DHT22;55276;53.260;50.222;2022-12-10T10:09:45;-3270.80;51.70
68358;DHT22;55276;53.260;50.222;2022-12-10T10:12:15;-3270.80;51.60
68358;DHT22;55276;53.260;50.222;2022-12-10T10:14:43;-3270.90;51.70
68358;DHT22;55276;53.260;50.222;2022-12-10T10:17:22;-3270.90;51.70
68358;DHT22;55276;53.260;50.222;2022-12-10T10:19:49;-3270.80;51.60
68358;DHT22;55276;53.260;50.222;2022-12-10T10:22:18;-3270.80;51.70
68358;DHT22;55276;53.260;50.222;2022-12-10T10:24:46;-3270.80;51.80
68358;DHT22;55276;53.260;50.222;2022-12-10T10:27:24;-3270.90;51.80
68358;DHT22;55276;53.260;50.222;2022-12-10T10:29:57;-3270.90;51.70
68358;DHT22;55276;53.260;50.222;2022-12-10T10:38:22;-3271.20;51.30
68358;DHT22;55276;53.260;50.222;2022-12-10T10:40:55;-3271.20;51.20
68358;DHT22;55276;53.260;50.222;2022-12-10T10:43:40;-3271.20;51.20
68358;DHT22;55276;53.260;50.222;2022-12-10T10:46:22;-3271.20;51.00
68358;DHT22;55276;53.260;50.222;2022-12-10T10:48:50;-3271.20;51.10
68358;DHT22;55276;53.260;50.222;2022-12-10T10:51:21;-3271.20;51.00
68358;DHT22;55276;53.260;50.222;2022-12-10T10:53:49;-3271.20;51.00
68358;DHT22;55276;53.260;50.222;2022-12-10T10:56:27;-3271.20;51.00
68358;DHT22;55276;53.260;50.222;2022-12-10T10:58:56;-3271.20;50.80
68358;DHT22;55276;53.260;50.222;2022-12-10T11:01:26;-3271.20;50.10
68358;DHT22;55276;53.260;50.222;2022-12-10T11:03:58;-3271.20;50.30
68358;DHT22;55276;53.260;50.222;2022-12-10T11:06:25;-3271.10;50.80
68358;DHT22;55276;53.260;50.222;2022-12-10T11:08:57;-3271.20;50.90
68358;DHT22;55276;53.260;50.222;2022-12-10T11:11:36;-3271.20;51.00
68358;DHT22;55276;53.260;50.222;2022-12-10T11:14:26;-3271.20;50.80
68358;DHT22;55276;53.260;50.222;2022-12-10T11:17:12;-3271.20;51.10
68358;DHT22;55276;53.260;50.222;2022-12-10T11:20:02;-3271.20;51.30
68358;DHT22;55276;53.260;50.222;2022-12-10T11:22:49;-3271.20;51.30
68358;DHT22;55276;53.260;50.222;2022-12-10T11:34:15;-3271.10;51.60
68358;DHT22;55276;53.260;50.222;2022-12-10T11:54:10;-3270.70;52.00
68358;DHT22;55276;53.260;50.222;2022-12-10T11:56:44;-3270.70;52.30
68358;DHT22;55276;53.260;50.222;2022-12-10T11:59:23;-3270.70;52.50
68358;DHT22;55276;53.260;50.222;2022-12-10T12:10:39;-3270.60;52.70
68358;DHT22;55276;53.260;50.222;2022-12-10T12:16:00;-3270.40;53.00
68358;DHT22;55276;53.260;50.222;2022-12-10T12:21:13;-3270.30;53.40
68358;DHT22;55276;53.260;50.222;2022-12-10T12:23:49;-3270.30;53.30
68358;DHT22;55276;53.260;50.222;2022-12-10T12:29:37;-3270.20;53.70
68358;DHT22;55276;53.260;50.222;2022-12-10T12:32:19;-3270.10;53.80
68358;DHT22;55276;53.260;50.222;2022-12-10T12:37:52;-3270.00;53.80
68358;DHT22;55276;53.260;50.222;2022-12-10T12:40:25;-3270.10;53.60
68358;DHT22;55276;53.260;50.222;2022-12-10T12:43:08;-3270.10;53.60
68358;DHT22;55276;53.260;50.222;2022-12-10T12:53:29;-3269.90;53.90
68358;DHT22;55276;53.260;50.222;2022-12-10T12:58:33;-3269.90;54.10
68358;DHT22;55276;53.260;50.222;2022-12-10T13:03:53;-3269.70;54.30
68358;DHT22;55276;53.260;50.222;2022-12-10T13:06:30;-3269.80;54.10
68358;DHT22;55276;53.260;50.222;2022-12-10T13:14:35;-3269.70;54.60
68358;DHT22;55276;53.260;50.222;2022-12-10T13:19:51;-3269.60;54.80
68358;DHT22;55276;53.260;50.222;2022-12-10T13:25:16;-3269.70;54.70
68358;DHT22;55276;53.260;50.222;2022-12-10T13:27:57;-3269.70;54.50
68358;DHT22;55276;53.260;50.222;2022-12-10T13:30:36;-3269.60;54.60
68358;DHT22;55276;53.260;50.222;2022-12-10T13:33:12;-3269.60;54.60
68358;DHT22;55276;53.260;50.222;2022-12-10T13:35:59;-3269.60;54.70
68358;DHT22;55276;53.260;50.222;2022-12-10T13:38:26;-3269.60;54.80
68358;DHT22;55276;53.260;50.222;2022-12-10T13:41:04;-3269.60;54.90
68358;DHT22;55276;53.260;50.222;2022-12-10T13:43:58;-3269.60;54.90
68358;DHT22;55276;53.260;50.222;2022-12-10T13:46:54;-3269.60;54.70
68358;DHT22;55276;53.260;50.222;2022-12-10T13:49:23;-3269.60;54.70
68358;DHT22;55276;53.260;50.222;2022-12-10T13:52:07;-3269.60;55.20
68358;DHT22;55276;53.260;50.222;2022-12-10T13:57:58;-3269.50;55.50
68358;DHT22;55276;53.260;50.222;2022-12-10T14:00:39;-3269.40;55.80
68358;DHT22;55276;53.260;50.222;2022-12-10T14:08:35;-3269.40;56.10
68358;DHT22;55276;53.260;50.222;2022-12-10T14:11:05;-3269.40;56.00
68358;DHT22;55276;53.260;50.222;2022-12-10T14:13:39;-3269.40;56.00
68358;DHT22;55276;53.260;50.222;2022-12-10T14:16:10;-3269.40;56.30
68358;DHT22;55276;53.260;50.222;2022-12-10T14:18:38;-3269.40;56.40
68358;DHT22;55276;53.260;50.222;2022-12-10T14:21:07;-3269.30;56.30
68358;DHT22;55276;53.260;50.222;2022-12-10T14:23:35;-3269.40;56.60
68358;DHT22;55276;53.260;50.222;2022-12-10T14:26:14;-3269.40;56.40
68358;DHT22;55276;53.260;50.222;2022-12-10T14:28:46;-3269.30;56.50
68358;DHT22;55276;53.260;50.222;2022-12-10T14:31:48;-3269.40;56.30
68358;DHT22;55276;53.260;50.222;2022-12-10T14:34:08;-3269.40;56.20
68358;DHT22;55276;53.260;50.222;2022-12-10T14:36:44;-3269.40;56.20
68358;DHT22;55276;53.260;50.222;2022-12-10T14:39:17;-3269.40;56.40
68358;DHT22;55276;53.260;50.222;2022-12-10T14:41:45;-3269.40;56.40
68358;DHT22;55276;53.260;50.222;2022-12-10T14:44:15;-3269.40;56.30
68358;DHT22;55276;53.260;50.222;2022-12-10T14:46:42;-3269.30;56.40
68358;DHT22;55276;53.260;50.222;2022-12-10T14:49:16;-3269.30;56.40
68358;DHT22;55276;53.260;50.222;2022-12-10T14:51:42;-3269.30;56.50
68358;DHT22;55276;53.260;50.222;2022-12-10T14:54:29;-3269.40;56.50
68358;DHT22;55276;53.260;50.222;2022-12-10T14:56:58;-3269.40;56.40
68358;DHT22;55276;53.260;50.222;2022-12-10T14:59:34;-3269.40;56.00
68358;DHT22;55276;53.260;50.222;2022-12-10T15:02:12;-3269.40;55.90
68358;DHT22;55276;53.260;50.222;2022-12-10T15:04:45;-3269.40;55.70
68358;DHT22;55276;53.260;50.222;2022-12-10T15:07:22;-3269.40;55.90
68358;DHT22;55276;53.260;50.222;2022-12-10T15:09:50;-3269.30;56.10
68358;DHT22;55276;53.260;50.222;2022-12-10T15:12:43;-3269.30;56.10
68358;DHT22;55276;53.260;50.222;2022-12-10T15:15:17;-3269.40;56.10
68358;DHT22;55276;53.260;50.222;2022-12-10T15:20:31;-3269.40;55.90
68358;DHT22;55276;53.260;50.222;2022-12-10T15:23:36;-3269.30;55.90
68358;DHT22;55276;53.260;50.222;2022-12-10T15:26:24;-3269.30;55.70
68358;DHT22;55276;53.260;50.222;2022-12-10T15:28:51;-3269.30;55.90
68358;DHT22;55276;53.260;50.222;2022-12-10T15:36:31;-3269.40;55.60
68358;DHT22;55276;53.260;50.222;2022-12-10T15:39:49;-3269.40;55.60
68358;DHT22;55276;53.260;50.222;2022-12-10T15:41:52;-3269.40;55.80
68358;DHT22;55276;53.260;50.222;2022-12-10T15:49:39;-3269.40;55.50
68358;DHT22;55276;53.260;50.222;2022-12-10T15:52:05;-3269.40;55.20
68358;DHT22;55276;53.260;50.222;2022-12-10T15:54:39;-3269.40;55.50
68358;DHT22;55276;53.260;50.222;2022-12-10T15:57:18;-3269.40;55.50
68358;DHT22;55276;53.260;50.222;2022-12-10T15:59:46;-3269.30;55.60
68358;DHT22;55276;53.260;50.222;2022-12-10T16:02:34;-3269.40;55.50
68358;DHT22;55276;53.260;50.222;2022-12-10T16:07:44;-3269.40;55.20
68358;DHT22;55276;53.260;50.222;2022-12-10T16:10:13;-3269.50;55.10
68358;DHT22;55276;53.260;50.222;2022-12-10T16:12:49;-3269.50;54.90
68358;DHT22;55276;53.260;50.222;2022-12-10T16:15:22;-3269.40;55.00
68358;DHT22;55276;53.260;50.222;2022-12-10T16:17:50;-3269.50;55.00
68358;DHT22;55276;53.260;50.222;2022-12-10T16:20:23;-3269.40;55.10
68358;DHT22;55276;53.260;50.222;2022-12-10T16:22:53;-3269.40;54.90
68358;DHT22;55276;53.260;50.222;2022-12-10T16:25:20;-3269.30;55.10
68358;DHT22;55276;53.260;50.222;2022-12-10T16:27:47;-3269.30;55.10
68358;DHT22;55276;53.260;50.222;2022-12-10T16:30:22;-3269.20;55.20
68358;DHT22;55276;53.260;50.222;2022-12-10T16:32:48;-3269.30;55.10
68358;DHT22;55276;53.260;50.222;2022-12-10T16:35:17;-3269.20;55.20
68358;DHT22;55276;53.260;50.222;2022-12-10T16:37:49;-3269.30;55.30
68358;DHT22;55276;53.260;50.222;2022-12-10T16:40:24;-3269.20;55.30
68358;DHT22;55276;53.260;50.222;2022-12-10T16:42:53;-3269.30;55.10
68358;DHT22;55276;53.260;50.222;2022-12-10T16:45:31;-3269.30;54.90
68358;DHT22;55276;53.260;50.222;2022-12-10T16:47:59;-3269.20;54.90
68358;DHT22;55276;53.260;50.222;2022-12-10T16:50:26;-3269.20;55.20
68358;DHT22;55276;53.260;50.222;2022-12-10T16:52:52;-3269.20;55.40
68358;DHT22;55276;53.260;50.222;2022-12-10T16:55:22;-3269.20;55.40
68358;DHT22;55276;53.260;50.222;2022-12-10T16:57:49;-3269.20;55.20
68358;DHT22;55276;53.260;50.222;2022-12-10T17:00:17;-3269.20;55.30
68358;DHT22;55276;53.260;50.222;2022-12-10T17:02:45;-3269.20;55.10
68358;DHT22;55276;53.260;50.222;2022-12-10T17:05:18;-3269.20;55.20
68358;DHT22;55276;53.260;50.222;2022-12-10T17:07:54;-3269.10;55.50
68358;DHT22;55276;53.260;50.222;2022-12-10T17:10:26;-3269.10;55.50